createdAt,value
2018-11-27T00:00:25.908Z,45.03
2018-11-27T00:02:59.943Z,44.03
2018-11-27T00:05:28.388Z,43.83
2018-11-27T00:07:56.259Z,42.77
2018-11-27T00:10:24.174Z,43.37
2018-11-27T00:12:52.433Z,44.10
2018-11-27T00:15:20.382Z,42.03
2018-11-27T00:17:48.355Z,43.50
2018-11-27T00:20:16.193Z,42.80
2018-11-27T00:22:44.103Z,42.33
2018-11-27T00:25:13.109Z,44.17
2018-11-27T00:27:41.237Z,40.93
2018-11-27T00:30:12.943Z,42.33
2018-11-27T00:32:40.867Z,43.33
2018-11-27T00:35:10.764Z,43.00
2018-11-27T00:37:38.686Z,42.30
2018-11-27T00:40:17.621Z,43.13
2018-11-27T00:42:45.494Z,41.47
2018-11-27T00:45:15.680Z,42.60
2018-11-27T00:47:44.597Z,42.13
2018-11-27T00:50:18.430Z,41.93
2018-11-27T00:52:46.845Z,40.73
2018-11-27T00:55:15.595Z,42.03
2018-11-27T00:57:44.233Z,41.37
2018-11-27T01:00:14.254Z,40.60
2018-11-27T01:02:42.141Z,40.57
2018-11-27T01:05:11.489Z,43.00
2018-11-27T01:07:39.354Z,41.37
2018-11-27T01:10:19.596Z,43.50
2018-11-27T01:12:47.473Z,42.63
2018-11-27T01:15:16.119Z,39.97
2018-11-27T01:17:48.865Z,42.40
2018-11-27T01:20:19.047Z,40.10
2018-11-27T01:22:46.913Z,42.23
2018-11-27T01:25:14.761Z,41.43
2018-11-27T01:27:42.637Z,40.40
2018-11-27T01:30:12.639Z,40.10
2018-11-27T01:32:42.617Z,42.17
2018-11-27T01:35:12.662Z,40.97
2018-11-27T01:37:40.883Z,39.63
2018-11-27T01:40:13.067Z,41.00
2018-11-27T01:42:40.949Z,41.97
2018-11-27T01:45:10.913Z,41.10
2018-11-27T01:47:38.752Z,40.77
2018-11-27T01:50:09.834Z,40.77
2018-11-27T01:52:38.989Z,42.40
2018-11-27T01:55:08.651Z,41.00
2018-11-27T01:57:36.545Z,40.90
2018-11-27T02:00:10.110Z,41.50
2018-11-27T02:02:37.955Z,40.83
2018-11-27T02:05:07.031Z,38.87
2018-11-27T02:07:35.969Z,41.03
2018-11-27T02:10:06.289Z,40.47
2018-11-27T02:12:34.110Z,40.33
2018-11-27T02:15:02.023Z,41.50
2018-11-27T02:17:29.864Z,41.63
2018-11-27T02:19:57.778Z,40.87
2018-11-27T02:22:25.604Z,41.33
2018-11-27T02:24:57.935Z,40.50
2018-11-27T02:27:25.783Z,40.73
2018-11-27T02:29:53.591Z,42.60
2018-11-27T02:32:21.404Z,40.90
2018-11-27T02:34:49.256Z,40.10
2018-11-27T02:37:17.108Z,41.43
2018-11-27T02:39:44.924Z,41.30
2018-11-27T02:42:12.795Z,40.10
2018-11-27T02:44:40.636Z,41.90
2018-11-27T02:47:08.453Z,39.50
2018-11-27T02:49:36.339Z,39.87
2018-11-27T02:52:04.497Z,42.80
2018-11-27T02:54:32.289Z,38.87
2018-11-27T02:57:00.193Z,41.33
2018-11-27T02:59:28.015Z,39.73
2018-11-27T03:01:55.841Z,40.63
2018-11-27T03:04:26.559Z,40.30
2018-11-27T03:06:54.379Z,38.27
2018-11-27T03:09:22.222Z,39.03
2018-11-27T03:11:51.731Z,39.00
2018-11-27T03:14:19.597Z,39.03
2018-11-27T03:16:47.454Z,40.50
2018-11-27T03:19:15.303Z,40.33
2018-11-27T03:21:43.149Z,40.60
2018-11-27T03:24:10.970Z,38.53
2018-11-27T03:26:38.831Z,40.00
2018-11-27T03:29:06.679Z,38.77
2018-11-27T03:31:34.490Z,40.00
2018-11-27T03:34:02.973Z,39.60
2018-11-27T03:36:30.802Z,41.20
2018-11-27T03:38:58.618Z,39.57
2018-11-27T03:41:26.513Z,40.00
2018-11-27T03:43:54.354Z,39.27
2018-11-27T03:46:22.172Z,39.70
2018-11-27T03:48:50.015Z,40.90
2018-11-27T03:51:17.854Z,40.73
2018-11-27T03:53:45.743Z,39.40
2018-11-27T03:56:13.627Z,39.93
2018-11-27T03:58:41.489Z,39.23
2018-11-27T04:01:09.306Z,39.77
2018-11-27T04:03:37.263Z,40.10
2018-11-27T04:06:05.130Z,41.27
2018-11-27T04:08:32.978Z,39.33
2018-11-27T04:11:01.684Z,41.40
2018-11-27T04:13:29.472Z,40.00
2018-11-27T04:15:57.363Z,39.47
2018-11-27T04:18:25.206Z,39.90
2018-11-27T04:20:53.207Z,39.97
2018-11-27T04:23:21.032Z,41.17
2018-11-27T04:25:48.922Z,41.50
2018-11-27T04:28:16.817Z,41.30
2018-11-27T04:30:44.635Z,39.80
2018-11-27T04:33:12.464Z,40.80
2018-11-27T04:35:40.287Z,40.37
2018-11-27T04:38:08.132Z,40.33
2018-11-27T04:40:36.710Z,39.60
2018-11-27T04:43:04.976Z,40.20
2018-11-27T04:45:33.989Z,41.80
2018-11-27T04:48:01.855Z,41.23
2018-11-27T04:50:30.789Z,41.87
2018-11-27T04:52:58.642Z,40.53
2018-11-27T04:55:26.542Z,39.77
2018-11-27T04:57:54.355Z,41.70
2018-11-27T05:00:24.345Z,39.70
2018-11-27T05:02:52.353Z,41.07
2018-11-27T05:05:20.290Z,40.87
2018-11-27T05:07:48.847Z,40.33
2018-11-27T05:10:19.329Z,41.10
2018-11-27T05:12:47.443Z,41.77
2018-11-27T05:15:17.485Z,43.20
2018-11-27T05:17:48.268Z,43.60
2018-11-27T05:20:15.485Z,42.50
2018-11-27T05:22:43.609Z,44.30
2018-11-27T05:25:12.690Z,43.67
2018-11-27T05:27:41.559Z,41.77
2018-11-27T05:30:11.453Z,42.10
2018-11-27T05:32:39.299Z,44.80
2018-11-27T05:35:08.844Z,42.87
2018-11-27T05:37:36.929Z,43.73
2018-11-27T05:40:07.835Z,42.77
2018-11-27T05:42:35.944Z,43.20
2018-11-27T05:45:04.310Z,43.40
2018-11-27T05:47:32.148Z,43.30
2018-11-27T05:50:00.129Z,45.43
2018-11-27T05:52:28.051Z,43.53
2018-11-27T05:54:55.957Z,42.90
2018-11-27T05:57:25.355Z,44.57
2018-11-27T05:59:53.195Z,44.00
2018-11-27T06:02:21.090Z,42.87
2018-11-27T06:04:48.995Z,42.83
2018-11-27T06:07:16.858Z,42.07
2018-11-27T06:09:45.263Z,44.73
2018-11-27T06:12:13.264Z,41.97
2018-11-27T06:14:41.140Z,43.83
2018-11-27T06:17:09.552Z,43.60
2018-11-27T06:19:37.762Z,44.03
2018-11-27T06:22:06.058Z,42.10
2018-11-27T06:24:33.913Z,45.60
2018-11-27T06:27:01.830Z,44.20
2018-11-27T06:29:30.728Z,44.13
2018-11-27T06:31:58.611Z,43.30
2018-11-27T06:34:26.450Z,43.63
2018-11-27T06:36:54.963Z,44.37
2018-11-27T06:39:22.800Z,45.93
2018-11-27T06:41:50.765Z,48.23
2018-11-27T06:44:23.514Z,46.37
2018-11-27T06:46:51.374Z,43.27
2018-11-27T06:49:20.301Z,45.60
2018-11-27T06:51:48.079Z,44.60
2018-11-27T06:54:16.960Z,45.07
2018-11-27T06:56:44.788Z,46.03
2018-11-27T06:59:12.931Z,44.47
2018-11-27T07:01:41.360Z,42.23
2018-11-27T07:04:09.168Z,43.43
2018-11-27T07:06:37.530Z,42.10
2018-11-27T07:09:08.503Z,45.43
2018-11-27T07:11:36.895Z,45.97
2018-11-27T07:14:05.186Z,44.57
2018-11-27T07:16:33.144Z,45.47
2018-11-27T07:19:01.130Z,44.77
2018-11-27T07:21:28.991Z,44.33
2018-11-27T07:23:56.806Z,46.87
2018-11-27T07:26:24.612Z,44.73
2018-11-27T07:28:52.438Z,44.77
2018-11-27T07:31:21.220Z,45.57
2018-11-27T07:33:49.196Z,44.23
2018-11-27T07:36:17.245Z,45.23
2018-11-27T07:38:45.169Z,44.87
2018-11-27T07:41:13.678Z,43.97
2018-11-27T07:43:41.541Z,45.10
2018-11-27T07:46:09.381Z,45.53
2018-11-27T07:48:38.557Z,44.50
2018-11-27T07:51:06.349Z,45.20
2018-11-27T07:53:34.354Z,47.80
2018-11-27T07:56:02.163Z,46.83
2018-11-27T07:58:30.128Z,46.23
2018-11-27T08:00:57.927Z,45.60
2018-11-27T08:03:25.742Z,44.63
2018-11-27T08:05:53.551Z,46.93
2018-11-27T08:08:21.529Z,46.07
2018-11-27T08:10:49.454Z,46.30
2018-11-27T08:13:17.295Z,47.30
2018-11-27T08:15:45.180Z,46.60
2018-11-27T08:18:13.065Z,47.03
2018-11-27T08:20:40.915Z,48.03
2018-11-27T08:23:09.797Z,45.90
2018-11-27T08:25:37.615Z,47.60
2018-11-27T08:28:07.565Z,46.43
2018-11-27T08:30:35.431Z,45.43
2018-11-27T08:33:03.318Z,45.03
2018-11-27T08:35:34.406Z,46.23
2018-11-27T08:38:02.257Z,47.17
2018-11-27T08:40:31.565Z,47.43
2018-11-27T08:43:01.155Z,48.23
2018-11-27T08:45:29.038Z,45.80
2018-11-27T08:47:57.913Z,48.73
2018-11-27T08:50:27.623Z,46.27
2018-11-27T08:52:57.650Z,45.40
2018-11-27T08:55:27.868Z,45.20
2018-11-27T08:57:55.927Z,46.97
2018-11-27T09:00:25.814Z,43.40
2018-11-27T09:02:53.745Z,44.87
2018-11-27T09:05:21.804Z,47.33
2018-11-27T09:07:49.629Z,46.77
2018-11-27T09:10:22.793Z,46.77
2018-11-27T09:12:50.633Z,45.47
2018-11-27T09:15:19.642Z,44.77
2018-11-27T09:18:01.904Z,45.37
2018-11-27T09:20:29.734Z,44.57
2018-11-27T09:22:58.150Z,44.47
2018-11-27T09:25:25.975Z,44.47
2018-11-27T09:27:53.839Z,42.13
2018-11-27T09:30:23.500Z,44.77
2018-11-27T09:32:51.445Z,43.50
2018-11-27T09:35:19.338Z,43.10
2018-11-27T09:37:47.886Z,42.73
2018-11-27T09:40:17.057Z,43.13
2018-11-27T09:42:44.967Z,43.50
2018-11-27T09:45:17.674Z,43.23
2018-11-27T09:47:46.550Z,42.73
2018-11-27T09:50:15.165Z,44.33
2018-11-27T09:52:43.900Z,42.47
2018-11-27T09:55:17.652Z,43.20
2018-11-27T09:57:45.526Z,44.20
2018-11-27T10:00:16.626Z,44.53
2018-11-27T10:02:44.466Z,43.03
2018-11-27T10:05:12.785Z,45.13
2018-11-27T10:07:41.525Z,44.67
2018-11-27T10:10:11.881Z,44.13
2018-11-27T10:12:40.209Z,43.13
2018-11-27T10:15:13.948Z,44.87
2018-11-27T10:17:42.060Z,46.60
2018-11-27T10:20:13.407Z,44.40
2018-11-27T10:22:41.418Z,44.27
2018-11-27T10:25:10.440Z,42.97
2018-11-27T10:27:40.463Z,43.17
2018-11-27T10:30:17.109Z,40.37
2018-11-27T10:32:45.815Z,40.73
2018-11-27T10:35:32.179Z,44.73
2018-11-27T10:38:00.055Z,41.93
2018-11-27T10:40:29.585Z,42.80
2018-11-27T10:42:57.626Z,41.30
2018-11-27T10:45:25.511Z,42.47
2018-11-27T10:47:55.079Z,40.50
2018-11-27T10:50:30.403Z,41.73
2018-11-27T10:52:58.255Z,42.03
2018-11-27T10:55:26.636Z,40.17
2018-11-27T10:57:55.564Z,41.23
2018-11-27T11:00:30.631Z,39.37
2018-11-27T11:04:03.842Z,39.63
2018-11-27T11:06:32.674Z,40.87
2018-11-27T11:09:01.609Z,39.60
2018-11-27T11:11:29.594Z,40.33
2018-11-27T11:13:57.612Z,40.80
2018-11-27T11:16:25.697Z,39.63
2018-11-27T11:18:53.544Z,40.43
2018-11-27T11:21:21.388Z,40.97
2018-11-27T11:23:49.512Z,39.67
2018-11-27T11:26:17.378Z,40.80
2018-11-27T11:28:45.224Z,40.00
2018-11-27T11:31:13.052Z,39.73
2018-11-27T11:33:41.729Z,38.57
2018-11-27T11:36:09.553Z,39.37
2018-11-27T11:38:37.944Z,41.40
2018-11-27T11:41:06.373Z,40.60
2018-11-27T11:43:34.638Z,38.27
2018-11-27T11:46:02.458Z,38.70
2018-11-27T11:48:30.358Z,40.67
2018-11-27T11:50:58.502Z,38.47
2018-11-27T11:53:26.803Z,40.20
2018-11-27T11:55:54.685Z,39.63
2018-11-27T11:58:22.572Z,43.17
2018-11-27T12:00:52.888Z,41.23
2018-11-27T12:03:20.818Z,38.63
2018-11-27T12:05:49.672Z,39.63
2018-11-27T12:08:18.321Z,39.73
2018-11-27T12:10:46.155Z,39.47
2018-11-27T12:13:14.053Z,40.13
2018-11-27T12:15:41.915Z,41.13
2018-11-27T12:18:10.283Z,40.17
2018-11-27T12:20:38.983Z,41.07
2018-11-27T12:23:08.342Z,40.43
2018-11-27T12:25:43.958Z,41.47
2018-11-27T12:28:14.629Z,38.83
2018-11-27T12:30:41.000Z,39.20
2018-11-27T12:33:08.957Z,39.63
2018-11-27T12:35:36.835Z,38.77
2018-11-27T12:38:05.450Z,40.63
2018-11-27T12:40:33.564Z,39.27
2018-11-27T12:43:01.413Z,39.20
2018-11-27T12:45:30.755Z,39.93
2018-11-27T12:47:59.689Z,38.70
2018-11-27T12:50:45.891Z,40.33
2018-11-27T12:53:17.033Z,38.43
2018-11-27T12:55:44.702Z,39.77
2018-11-27T12:58:12.568Z,38.03
2018-11-27T13:00:40.519Z,37.67
2018-11-27T13:03:09.088Z,38.13
2018-11-27T13:05:40.552Z,38.10
2018-11-27T13:08:10.877Z,36.20
2018-11-27T13:10:38.796Z,35.90
2018-11-27T13:13:06.745Z,37.13
2018-11-27T13:15:35.894Z,36.57
2018-11-27T13:18:04.804Z,37.80
2018-11-27T13:20:32.691Z,37.77
2018-11-27T13:23:00.558Z,37.73
2018-11-27T13:25:28.425Z,35.67
2018-11-27T13:27:56.558Z,36.40
2018-11-27T13:30:26.862Z,36.97
2018-11-27T13:35:07.344Z,33.43
2018-11-27T13:37:35.193Z,35.73
2018-11-27T13:40:03.105Z,36.00
2018-11-27T13:42:31.572Z,38.90
2018-11-27T13:44:59.404Z,36.90
2018-11-27T13:47:27.222Z,37.30
2018-11-27T13:49:55.933Z,37.80
2018-11-27T13:52:24.015Z,37.63
2018-11-27T13:54:52.033Z,37.30
2018-11-27T13:57:20.552Z,35.90
2018-11-27T13:59:48.400Z,36.23
2018-11-27T14:02:16.245Z,37.67
2018-11-27T14:04:44.115Z,36.90
2018-11-27T14:07:12.101Z,37.80
2018-11-27T14:09:39.961Z,38.33
2018-11-27T14:12:07.915Z,36.43
2018-11-27T14:14:35.783Z,39.27
2018-11-27T14:17:03.721Z,35.40
2018-11-27T14:19:31.556Z,36.50
2018-11-27T14:21:59.449Z,35.67
2018-11-27T14:24:27.296Z,34.57
2018-11-27T14:26:55.164Z,36.37
2018-11-27T14:29:23.150Z,36.23
2018-11-27T14:31:51.414Z,36.43
2018-11-27T14:34:19.524Z,36.13
2018-11-27T14:36:47.411Z,37.63
2018-11-27T14:39:15.565Z,37.00
2018-11-27T14:41:43.511Z,36.87
2018-11-27T14:44:11.367Z,38.37
2018-11-27T14:46:39.180Z,35.57
2018-11-27T14:49:07.097Z,37.37
2018-11-27T14:51:35.014Z,37.87
2018-11-27T14:54:02.893Z,35.90
2018-11-27T14:56:30.734Z,36.80
2018-11-27T14:59:00.162Z,35.53
2018-11-27T15:01:28.074Z,37.37
2018-11-27T15:03:55.901Z,38.20
2018-11-27T15:06:23.979Z,38.07
2018-11-27T15:08:51.920Z,36.80
2018-11-27T15:11:20.469Z,35.83
2018-11-27T15:13:48.833Z,37.00
2018-11-27T15:16:17.711Z,37.60
2018-11-27T15:18:45.641Z,37.70
2018-11-27T15:21:13.916Z,38.50
2018-11-27T15:23:41.941Z,38.30
2018-11-27T15:26:10.404Z,38.77
2018-11-27T15:28:38.443Z,38.10
2018-11-27T15:31:06.355Z,38.40
2018-11-27T15:33:34.411Z,39.83
2018-11-27T15:36:02.485Z,39.07
2018-11-27T15:38:30.480Z,40.50
2018-11-27T15:40:58.382Z,38.23
2018-11-27T15:43:26.280Z,37.77
2018-11-27T15:45:54.222Z,39.27
2018-11-27T15:48:22.323Z,42.23
2018-11-27T15:50:50.198Z,39.90
2018-11-27T15:53:18.445Z,43.07
2018-11-27T15:55:47.276Z,40.20
2018-11-27T15:58:15.231Z,41.33
2018-11-27T16:00:44.140Z,40.73
2018-11-27T16:03:12.051Z,39.17
2018-11-27T16:05:46.876Z,40.63
2018-11-27T16:08:15.177Z,40.00
2018-11-27T16:10:43.248Z,41.53
2018-11-27T16:13:11.956Z,41.37
2018-11-27T16:15:39.881Z,41.93
2018-11-27T16:18:08.268Z,41.97
2018-11-27T16:20:36.209Z,39.77
2018-11-27T16:23:04.158Z,41.10
2018-11-27T16:25:32.409Z,40.73
2018-11-27T16:28:03.378Z,42.63
2018-11-27T16:30:32.936Z,41.87
2018-11-27T16:33:00.931Z,42.60
2018-11-27T16:35:29.798Z,41.67
2018-11-27T16:37:59.606Z,40.47
2018-11-27T16:40:29.660Z,42.30
2018-11-27T16:42:58.069Z,41.33
2018-11-27T16:45:26.129Z,41.40
2018-11-27T16:47:54.065Z,41.53
2018-11-27T16:50:21.981Z,43.63
2018-11-27T16:52:50.048Z,42.20
2018-11-27T16:55:20.085Z,41.37
2018-11-27T16:57:48.826Z,41.40
2018-11-27T17:00:25.362Z,40.43
2018-11-27T17:02:55.371Z,41.60
2018-11-27T17:05:29.918Z,40.80
2018-11-27T17:07:57.840Z,40.90
2018-11-27T17:10:25.778Z,42.50
2018-11-27T17:12:56.111Z,43.03
2018-11-27T17:15:25.176Z,42.23
2018-11-27T17:17:53.822Z,42.03
2018-11-27T17:20:28.010Z,43.47
2018-11-27T17:22:57.052Z,40.13
2018-11-27T17:25:25.021Z,42.50
2018-11-27T17:27:53.549Z,39.93
2018-11-27T17:30:39.349Z,41.63
2018-11-27T17:33:10.647Z,40.40
2018-11-27T17:35:41.868Z,40.63
2018-11-27T17:38:10.490Z,39.70
2018-11-27T17:40:38.581Z,40.53
2018-11-27T17:43:06.570Z,42.47
2018-11-27T17:45:34.537Z,41.33
2018-11-27T17:48:02.587Z,41.03
2018-11-27T17:50:30.533Z,39.90
2018-11-27T17:52:58.605Z,40.90
2018-11-27T17:55:27.790Z,41.77
2018-11-27T17:57:55.718Z,41.50
2018-11-27T18:00:28.712Z,43.10
2018-11-27T18:02:59.219Z,43.37
2018-11-27T18:05:27.409Z,43.50
2018-11-27T18:07:55.390Z,41.87
2018-11-27T18:10:23.378Z,42.47
2018-11-27T18:12:51.393Z,39.73
2018-11-27T18:15:20.627Z,39.97
2018-11-27T18:17:48.841Z,39.90
2018-11-27T18:20:17.656Z,40.00
2018-11-27T18:22:45.914Z,41.73
2018-11-27T18:25:14.841Z,42.20
2018-11-27T18:27:45.136Z,41.53
2018-11-27T18:30:14.308Z,42.03
2018-11-27T18:32:42.317Z,40.83
2018-11-27T18:35:14.539Z,40.67
2018-11-27T18:37:42.556Z,40.87
2018-11-27T18:40:11.584Z,42.43
2018-11-27T18:42:39.586Z,43.47
2018-11-27T18:45:13.317Z,45.10
2018-11-27T18:47:41.885Z,41.67
2018-11-27T18:50:11.307Z,40.90
2018-11-27T18:52:39.367Z,38.93
2018-11-27T18:55:08.775Z,37.97
2018-11-27T18:57:36.772Z,38.50
2018-11-27T19:00:09.791Z,37.40
2018-11-27T19:02:38.743Z,35.97
2018-11-27T19:05:07.123Z,36.37
2018-11-27T19:07:37.729Z,34.90
2018-11-27T19:10:09.014Z,36.13
2018-11-27T19:12:37.016Z,33.70
2018-11-27T19:15:24.667Z,34.37
2018-11-27T19:17:54.932Z,34.57
2018-11-27T19:20:22.989Z,33.53
2018-11-27T19:22:50.944Z,31.77
2018-11-27T19:25:18.891Z,31.90
2018-11-27T19:27:46.880Z,31.23
2018-11-27T19:30:16.878Z,31.07
2018-11-27T19:32:44.848Z,30.20
2018-11-27T19:35:14.975Z,29.43
2018-11-27T19:37:45.863Z,29.33
2018-11-27T19:40:15.018Z,27.47
2018-11-27T19:42:45.623Z,27.27
2018-11-27T19:47:43.443Z,27.70
2018-11-27T19:50:12.178Z,26.87
2018-11-27T19:52:40.904Z,26.33
2018-11-27T19:55:10.540Z,26.30
2018-11-27T19:57:38.561Z,26.33
2018-11-27T20:00:15.208Z,26.67
2018-11-27T20:02:43.245Z,27.73
2018-11-27T20:05:12.499Z,27.37
2018-11-27T20:07:41.557Z,28.90
2018-11-27T20:10:14.172Z,29.33
2018-11-27T20:12:46.227Z,29.27
2018-11-27T20:15:17.795Z,28.63
2018-11-27T20:17:46.481Z,27.57
2018-11-27T20:20:15.591Z,26.90
2018-11-27T20:22:43.681Z,25.77
2018-11-27T20:25:14.929Z,24.83
2018-11-27T20:27:50.676Z,25.43
2018-11-27T20:30:21.795Z,24.77
2018-11-27T20:32:54.797Z,24.27
2018-11-27T20:35:22.848Z,24.53
2018-11-27T20:37:51.721Z,24.83
2018-11-27T20:40:19.912Z,24.57
2018-11-27T20:42:48.054Z,25.37
2018-11-27T20:45:20.729Z,26.47
2018-11-27T20:47:51.953Z,25.00
2018-11-27T20:50:21.659Z,25.13
2018-11-27T20:52:49.697Z,27.23
2018-11-27T20:55:21.386Z,25.77
2018-11-27T20:57:52.023Z,26.00
2018-11-27T21:00:23.354Z,25.83
2018-11-27T21:02:52.980Z,25.33
2018-11-27T21:05:21.092Z,25.77
2018-11-27T21:07:49.030Z,26.50
2018-11-27T21:10:17.710Z,25.77
2018-11-27T21:12:45.935Z,24.93
2018-11-27T21:15:15.088Z,24.97
2018-11-27T21:17:43.133Z,25.63
2018-11-27T21:20:12.132Z,25.37
2018-11-27T21:22:53.318Z,25.33
2018-11-27T21:25:23.304Z,24.83
2018-11-27T21:28:10.764Z,26.00
2018-11-27T21:33:22.233Z,25.23
2018-11-27T21:35:50.400Z,24.57
2018-11-27T21:38:18.319Z,25.43
2018-11-27T21:40:46.268Z,23.67
2018-11-27T21:43:14.258Z,23.60
2018-11-27T21:45:42.216Z,24.13
2018-11-27T21:48:10.183Z,23.00
2018-11-27T21:50:39.634Z,22.43
2018-11-27T21:53:07.579Z,23.07
2018-11-27T21:55:36.166Z,22.33
2018-11-27T21:58:04.337Z,24.93
2018-11-27T22:00:32.259Z,23.57
2018-11-27T22:03:00.912Z,21.73
2018-11-27T22:05:28.865Z,21.83
2018-11-27T22:07:56.739Z,21.87
2018-11-27T22:10:26.717Z,21.17
2018-11-27T22:12:55.787Z,21.87
2018-11-27T22:15:28.971Z,20.87
2018-11-27T22:17:56.888Z,21.53
2018-11-27T22:20:24.719Z,20.17
2018-11-27T22:22:52.726Z,20.40
2018-11-27T22:25:21.307Z,19.87
2018-11-27T22:27:49.395Z,20.10
2018-11-27T22:30:18.319Z,19.77
2018-11-27T22:32:48.179Z,19.17
2018-11-27T22:35:17.179Z,20.00
2018-11-27T22:37:45.048Z,20.23
2018-11-27T22:40:16.688Z,19.37
2018-11-27T22:42:45.976Z,20.60
2018-11-27T22:45:16.276Z,19.70
2018-11-27T22:47:44.145Z,18.53
2018-11-27T22:50:13.871Z,18.60
2018-11-27T22:52:41.847Z,17.90
2018-11-27T22:55:10.297Z,18.43
2018-11-27T22:57:38.334Z,18.50
2018-11-27T23:00:33.654Z,18.37
2018-11-27T23:03:01.564Z,17.93
2018-11-27T23:05:29.473Z,18.60
2018-11-27T23:07:57.499Z,17.77
2018-11-27T23:10:26.944Z,18.43
2018-11-27T23:12:54.859Z,19.03
2018-11-27T23:15:24.196Z,18.80
2018-11-27T23:17:52.120Z,18.53
2018-11-27T23:20:20.141Z,18.17
2018-11-27T23:22:48.173Z,17.37
2018-11-27T23:25:17.099Z,18.07
2018-11-27T23:27:45.062Z,18.67
2018-11-27T23:30:16.638Z,17.50
2018-11-27T23:32:44.711Z,19.33
2018-11-27T23:35:13.189Z,17.57
2018-11-27T23:37:41.005Z,17.97
2018-11-27T23:40:11.045Z,17.53
2018-11-27T23:42:39.220Z,18.70
2018-11-27T23:45:09.950Z,17.97
2018-11-27T23:47:38.109Z,18.43
2018-11-27T23:50:07.707Z,18.57
2018-11-27T23:52:35.909Z,17.53
2018-11-27T23:55:03.977Z,18.50
2018-11-27T23:57:32.073Z,18.47
2018-11-27T23:59:59.935Z,17.97
